createdAt,value
2022-08-26T00:00:21.013Z,8.35
2022-08-26T00:02:48.973Z,8.10
2022-08-26T00:05:17.398Z,8.48
2022-08-26T00:07:46.585Z,8.68
2022-08-26T00:10:14.984Z,8.50
2022-08-26T00:12:44.290Z,8.40
2022-08-26T00:15:18.583Z,8.93
2022-08-26T00:17:50.102Z,9.00
2022-08-26T00:20:23.002Z,9.55
2022-08-26T00:22:51.144Z,9.20
2022-08-26T00:25:19.673Z,9.35
2022-08-26T00:27:50.870Z,10.07
2022-08-26T00:30:26.601Z,9.95
2022-08-26T00:32:55.821Z,10.18
2022-08-26T00:35:28.024Z,9.80
2022-08-26T00:37:58.840Z,10.30
2022-08-26T00:40:31.540Z,9.95
2022-08-26T00:43:06.988Z,10.55
2022-08-26T00:45:45.234Z,10.20
2022-08-26T00:48:17.323Z,9.77
2022-08-26T00:50:54.568Z,9.75
2022-08-26T00:53:30.383Z,9.68
2022-08-26T00:56:09.671Z,11.60
2022-08-26T00:58:45.316Z,11.35
2022-08-26T01:01:13.783Z,10.93
2022-08-26T01:03:44.726Z,11.57
2022-08-26T01:06:14.765Z,11.55
2022-08-26T01:08:42.648Z,12.57
2022-08-26T01:11:14.950Z,13.85
2022-08-26T01:13:47.476Z,14.00
2022-08-26T01:16:16.920Z,13.35
2022-08-26T01:18:46.799Z,14.20
2022-08-26T01:21:25.098Z,14.23
2022-08-26T01:23:57.898Z,14.85
2022-08-26T01:26:33.780Z,14.77
2022-08-26T01:29:06.054Z,14.45
2022-08-26T01:31:41.766Z,14.85
2022-08-26T01:34:18.062Z,14.73
2022-08-26T01:36:51.611Z,14.23
2022-08-26T01:39:23.029Z,14.75
2022-08-26T01:41:56.892Z,14.32
2022-08-26T01:44:30.492Z,14.43
2022-08-26T01:47:02.002Z,13.88
2022-08-26T01:49:36.592Z,13.88
2022-08-26T01:52:07.563Z,13.18
2022-08-26T01:54:40.408Z,13.20
2022-08-26T01:57:09.078Z,12.65
2022-08-26T01:59:38.040Z,12.40
2022-08-26T02:02:07.124Z,12.45
2022-08-26T02:04:44.211Z,12.13
2022-08-26T02:07:12.694Z,13.23
2022-08-26T02:09:42.820Z,12.15
2022-08-26T02:12:15.169Z,12.23
2022-08-26T02:14:50.164Z,12.20
2022-08-26T02:17:26.133Z,12.43
2022-08-26T02:22:24.857Z,13.07
2022-08-26T02:24:58.209Z,12.68
2022-08-26T02:27:32.352Z,14.40
2022-08-26T02:30:09.629Z,14.65
2022-08-26T02:32:40.154Z,14.25
2022-08-26T02:35:10.904Z,15.18
2022-08-26T02:37:39.108Z,15.60
2022-08-26T02:40:15.254Z,16.35
2022-08-26T02:42:43.472Z,16.98
2022-08-26T02:45:13.366Z,15.93
2022-08-26T02:47:45.230Z,16.35
2022-08-26T02:50:14.808Z,16.08
2022-08-26T02:52:45.613Z,17.80
2022-08-26T02:55:15.790Z,18.02
2022-08-26T02:57:44.033Z,17.52
2022-08-26T03:00:15.338Z,18.20
2022-08-26T03:02:43.661Z,18.23
2022-08-26T03:05:13.054Z,18.92
2022-08-26T03:07:40.912Z,19.10
2022-08-26T03:10:12.502Z,19.13
2022-08-26T03:12:42.960Z,19.13
2022-08-26T03:15:18.642Z,20.08
2022-08-26T03:17:49.034Z,20.63
2022-08-26T03:20:18.795Z,20.75
2022-08-26T03:22:47.158Z,21.10
2022-08-26T03:25:17.507Z,21.42
2022-08-26T03:27:46.742Z,21.55
2022-08-26T03:30:34.907Z,22.48
2022-08-26T03:33:04.037Z,23.85
2022-08-26T03:35:32.784Z,23.20
2022-08-26T03:38:02.016Z,24.35
2022-08-26T03:40:30.301Z,25.05
2022-08-26T03:42:59.881Z,25.83
2022-08-26T03:45:27.939Z,28.20
2022-08-26T03:47:56.219Z,29.90
2022-08-26T03:50:27.068Z,31.52
2022-08-26T03:52:59.412Z,33.63
2022-08-26T03:55:33.010Z,36.65
2022-08-26T03:58:02.641Z,37.33
2022-08-26T04:00:30.747Z,37.97
2022-08-26T04:02:58.796Z,38.55
2022-08-26T04:05:26.935Z,39.83
2022-08-26T04:07:56.171Z,42.58
2022-08-26T04:10:28.552Z,43.08
2022-08-26T04:12:58.728Z,43.10
2022-08-26T04:15:28.806Z,45.30
2022-08-26T04:17:57.377Z,45.55
2022-08-26T04:20:26.942Z,47.30
2022-08-26T04:22:54.806Z,48.55
2022-08-26T04:25:24.273Z,48.28
2022-08-26T04:27:52.387Z,50.53
2022-08-26T04:30:21.205Z,49.95
2022-08-26T04:32:50.536Z,51.72
2022-08-26T04:35:25.601Z,52.08
2022-08-26T04:37:54.486Z,55.42
2022-08-26T04:40:23.270Z,54.90
2022-08-26T04:42:52.445Z,58.40
2022-08-26T04:45:22.759Z,56.35
2022-08-26T04:47:56.212Z,60.60
2022-08-26T04:50:25.749Z,62.03
2022-08-26T04:52:55.410Z,63.63
2022-08-26T04:55:38.675Z,65.20
2022-08-26T04:58:10.891Z,67.35
2022-08-26T05:00:38.831Z,71.35
2022-08-26T05:03:10.383Z,68.07
2022-08-26T05:05:41.168Z,63.75
2022-08-26T05:08:11.185Z,67.03
2022-08-26T05:10:41.101Z,63.55
2022-08-26T05:13:11.168Z,64.28
2022-08-26T05:15:40.121Z,60.63
2022-08-26T05:18:10.701Z,61.67
2022-08-26T05:20:41.776Z,63.08
2022-08-26T05:23:09.869Z,60.30
2022-08-26T05:25:40.391Z,58.53
2022-08-26T05:28:09.044Z,49.90
2022-08-26T05:30:38.221Z,56.92
2022-08-26T05:33:08.176Z,55.67
2022-08-26T05:35:39.010Z,47.28
2022-08-26T05:38:12.819Z,55.13
2022-08-26T05:40:44.721Z,57.58
2022-08-26T05:43:13.937Z,54.50
2022-08-26T05:45:46.151Z,54.58
2022-08-26T05:48:16.107Z,56.42
2022-08-26T05:50:47.986Z,53.05
2022-08-26T05:53:20.622Z,55.05
2022-08-26T05:55:51.983Z,52.42
2022-08-26T05:58:22.019Z,54.13
2022-08-26T06:00:59.141Z,52.08
2022-08-26T06:03:28.361Z,51.42
2022-08-26T06:05:57.944Z,51.30
2022-08-26T06:08:25.892Z,50.92
2022-08-26T06:10:59.445Z,50.08
2022-08-26T06:13:31.918Z,49.55
2022-08-26T06:16:05.135Z,49.08
2022-08-26T06:18:37.607Z,48.15
2022-08-26T06:21:16.675Z,47.65
2022-08-26T06:24:06.587Z,48.38
2022-08-26T06:26:37.037Z,47.95
2022-08-26T06:29:06.994Z,48.08
2022-08-26T06:31:37.258Z,47.90
2022-08-26T06:34:10.727Z,46.25
2022-08-26T06:36:43.935Z,45.22
2022-08-26T06:39:16.533Z,44.42
2022-08-26T06:41:46.298Z,43.05
2022-08-26T06:44:19.474Z,42.80
2022-08-26T06:46:50.267Z,41.35
2022-08-26T06:49:26.560Z,42.88
2022-08-26T06:51:59.592Z,43.70
2022-08-26T06:54:31.421Z,43.03
2022-08-26T06:56:59.686Z,41.65
2022-08-26T06:59:28.289Z,42.78
2022-08-26T07:01:56.151Z,42.25
2022-08-26T07:04:24.966Z,42.50
2022-08-26T07:06:57.588Z,41.75
2022-08-26T07:09:29.242Z,40.10
2022-08-26T07:11:57.214Z,39.97
2022-08-26T07:14:26.261Z,40.97
2022-08-26T07:16:55.158Z,40.40
2022-08-26T07:19:30.592Z,39.95
2022-08-26T07:22:05.067Z,39.85
2022-08-26T07:24:36.822Z,40.58
2022-08-26T07:27:08.960Z,41.47
2022-08-26T07:29:39.498Z,40.70
2022-08-26T07:32:08.440Z,37.40
2022-08-26T07:34:38.355Z,38.63
2022-08-26T07:37:08.869Z,36.95
2022-08-26T07:39:38.113Z,38.47
2022-08-26T07:42:10.631Z,37.63
2022-08-26T07:44:40.546Z,37.08
2022-08-26T07:47:24.556Z,40.28
2022-08-26T07:49:55.993Z,38.35
2022-08-26T07:52:29.021Z,36.13
2022-08-26T07:54:59.662Z,36.85
2022-08-26T07:57:29.512Z,35.70
2022-08-26T08:00:01.391Z,37.40
2022-08-26T08:02:29.863Z,36.05
2022-08-26T08:04:58.309Z,34.10
2022-08-26T08:07:45.136Z,34.50
2022-08-26T08:10:18.214Z,36.05
2022-08-26T08:12:48.483Z,33.35
2022-08-26T08:15:20.115Z,35.42
2022-08-26T08:17:50.460Z,36.63
2022-08-26T08:20:21.430Z,36.55
2022-08-26T08:22:53.121Z,36.53
2022-08-26T08:25:24.609Z,38.03
2022-08-26T08:27:53.899Z,35.70
2022-08-26T08:30:24.444Z,36.25
2022-08-26T08:32:53.462Z,32.97
2022-08-26T08:35:27.640Z,34.05
2022-08-26T08:37:59.114Z,35.70
2022-08-26T08:40:28.092Z,36.47
2022-08-26T08:43:04.226Z,36.58
2022-08-26T08:45:39.374Z,34.83
2022-08-26T08:48:20.305Z,37.35
2022-08-26T08:50:57.062Z,36.13
2022-08-26T08:53:35.277Z,34.65
2022-08-26T08:56:17.011Z,33.88
2022-08-26T08:58:56.840Z,34.15
2022-08-26T09:01:54.204Z,35.70
2022-08-26T09:04:56.088Z,36.17
2022-08-26T09:07:36.577Z,33.67
2022-08-26T09:10:30.607Z,34.45
2022-08-26T09:13:02.585Z,33.22
2022-08-26T09:15:45.401Z,32.05
2022-08-26T09:18:36.850Z,32.10
2022-08-26T09:21:11.700Z,32.05
2022-08-26T09:23:42.879Z,31.35
2022-08-26T09:26:19.871Z,30.85
2022-08-26T09:28:56.263Z,31.63
2022-08-26T09:31:29.308Z,31.92
2022-08-26T09:34:17.269Z,33.00
2022-08-26T09:36:49.619Z,30.95
2022-08-26T09:39:33.427Z,31.95
2022-08-26T09:42:11.230Z,30.08
2022-08-26T09:44:56.510Z,30.55
2022-08-26T09:47:30.237Z,31.20
2022-08-26T09:52:42.902Z,30.08
2022-08-26T09:55:21.033Z,30.17
2022-08-26T09:57:54.164Z,30.90
2022-08-26T10:00:31.167Z,30.55
2022-08-26T10:03:02.615Z,29.80
2022-08-26T10:05:42.420Z,28.73
2022-08-26T10:08:26.128Z,28.73
2022-08-26T10:10:57.117Z,29.10
2022-08-26T10:13:35.648Z,29.77
2022-08-26T10:16:17.786Z,31.15
2022-08-26T10:19:00.046Z,29.75
2022-08-26T10:21:37.036Z,28.52
2022-08-26T10:24:09.048Z,29.92
2022-08-26T10:26:50.618Z,27.55
2022-08-26T10:29:29.605Z,28.27
2022-08-26T10:32:03.532Z,27.50
2022-08-26T10:34:32.301Z,25.02
2022-08-26T10:37:15.066Z,26.67
2022-08-26T10:39:57.014Z,24.45
2022-08-26T10:42:35.295Z,24.33
2022-08-26T10:45:11.098Z,22.65
2022-08-26T10:47:50.116Z,23.38
2022-08-26T10:50:22.942Z,22.55
2022-08-26T10:53:02.281Z,22.20
2022-08-26T10:55:40.393Z,22.42
2022-08-26T10:58:36.744Z,21.27
2022-08-26T11:04:48.484Z,19.63
2022-08-26T11:07:36.757Z,20.55
2022-08-26T11:10:31.982Z,20.90
2022-08-26T11:13:03.462Z,19.13
2022-08-26T11:16:09.393Z,20.02
2022-08-26T11:22:11.738Z,18.42
2022-08-26T11:25:01.491Z,18.55
2022-08-26T11:27:57.852Z,17.40
2022-08-26T11:30:49.085Z,17.07
2022-08-26T11:33:57.925Z,17.60
2022-08-26T11:36:57.445Z,17.48
2022-08-26T11:39:36.517Z,16.17
2022-08-26T11:42:27.722Z,16.50
2022-08-26T11:44:58.208Z,16.52
2022-08-26T11:47:31.431Z,15.50
2022-08-26T11:50:16.731Z,15.40
2022-08-26T11:52:53.549Z,15.18
2022-08-26T11:55:23.341Z,13.27
2022-08-26T11:57:57.571Z,14.95
2022-08-26T12:00:33.578Z,13.23
2022-08-26T12:03:08.547Z,12.23
2022-08-26T12:05:45.978Z,12.63
2022-08-26T12:08:21.541Z,12.23
2022-08-26T12:10:49.760Z,13.50
2022-08-26T12:13:25.036Z,10.20
2022-08-26T12:15:57.764Z,9.73
2022-08-26T12:18:31.302Z,11.77
2022-08-26T12:21:12.298Z,10.73
2022-08-26T12:23:44.899Z,11.75
2022-08-26T12:26:24.429Z,11.05
2022-08-26T12:28:59.484Z,10.60
2022-08-26T12:31:32.779Z,11.60
2022-08-26T12:34:04.888Z,10.73
2022-08-26T12:36:43.141Z,10.75
2022-08-26T12:39:16.638Z,10.13
2022-08-26T12:41:49.613Z,9.82
2022-08-26T12:44:53.454Z,8.70
2022-08-26T12:47:30.988Z,7.57
2022-08-26T12:50:18.950Z,8.38
2022-08-26T12:53:00.860Z,7.40
2022-08-26T12:55:44.842Z,8.18
2022-08-26T12:58:23.960Z,8.07
2022-08-26T13:00:54.654Z,7.85
2022-08-26T13:03:43.940Z,6.35
2022-08-26T13:06:31.286Z,6.05
2022-08-26T13:09:06.057Z,6.22
2022-08-26T13:12:02.152Z,6.00
2022-08-26T13:14:31.110Z,5.10
2022-08-26T13:16:59.259Z,5.45
2022-08-26T13:19:27.154Z,5.13
2022-08-26T13:21:58.436Z,4.15
2022-08-26T13:24:32.930Z,4.28
2022-08-26T13:27:05.491Z,4.88
2022-08-26T13:29:34.869Z,4.53
2022-08-26T13:32:06.497Z,4.50
2022-08-26T13:34:37.407Z,5.50
2022-08-26T13:37:06.724Z,4.78
2022-08-26T13:39:35.140Z,4.63
2022-08-26T13:42:05.334Z,4.90
2022-08-26T13:44:33.469Z,4.70
2022-08-26T13:47:01.349Z,4.10
2022-08-26T13:49:45.493Z,5.03
2022-08-26T13:52:13.757Z,4.00
2022-08-26T13:54:41.747Z,4.50
2022-08-26T13:57:11.567Z,4.30
2022-08-26T13:59:42.302Z,4.28
2022-08-26T14:02:13.286Z,4.30
2022-08-26T14:04:41.622Z,3.85
2022-08-26T14:07:12.191Z,4.43
2022-08-26T14:09:40.291Z,3.80
2022-08-26T14:12:10.042Z,4.55
2022-08-26T14:14:38.181Z,4.43
2022-08-26T14:17:07.104Z,4.95
2022-08-26T14:19:35.288Z,5.20
2022-08-26T14:22:04.583Z,5.28
2022-08-26T14:24:32.456Z,5.38
2022-08-26T14:27:00.406Z,5.22
2022-08-26T14:29:29.666Z,5.47
2022-08-26T14:32:00.809Z,4.50
2022-08-26T14:34:29.016Z,5.60
2022-08-26T14:36:56.825Z,5.50
2022-08-26T14:39:24.828Z,4.85
2022-08-26T14:41:56.544Z,4.80
2022-08-26T14:44:31.218Z,5.00
2022-08-26T14:47:02.201Z,5.07
2022-08-26T14:49:31.449Z,4.90
2022-08-26T14:51:59.561Z,5.68
2022-08-26T14:54:29.336Z,4.65
2022-08-26T14:57:01.800Z,4.90
2022-08-26T14:59:34.475Z,5.10
2022-08-26T15:02:07.362Z,4.80
2022-08-26T15:04:35.413Z,4.78
2022-08-26T15:07:04.895Z,4.28
2022-08-26T15:09:37.308Z,4.10
2022-08-26T15:12:12.841Z,4.18
2022-08-26T15:14:42.086Z,5.25
2022-08-26T15:17:10.071Z,5.03
2022-08-26T15:19:38.916Z,4.97
2022-08-26T15:22:07.038Z,4.50
2022-08-26T15:24:35.086Z,4.68
2022-08-26T15:27:03.582Z,3.58
2022-08-26T15:29:31.627Z,3.35
2022-08-26T15:32:07.228Z,3.15
2022-08-26T15:34:36.531Z,3.08
2022-08-26T15:37:06.359Z,2.90
2022-08-26T15:39:35.069Z,3.15
2022-08-26T15:42:03.984Z,2.85
2022-08-26T15:44:33.978Z,2.90
2022-08-26T15:47:02.980Z,3.67
2022-08-26T15:49:32.862Z,3.35
2022-08-26T15:52:03.452Z,2.75
2022-08-26T15:54:33.393Z,3.25
2022-08-26T15:57:04.075Z,3.03
2022-08-26T15:59:33.288Z,3.33
2022-08-26T16:02:02.149Z,2.80
2022-08-26T16:04:32.821Z,3.10
2022-08-26T16:07:01.307Z,2.75
2022-08-26T16:09:31.777Z,3.17
2022-08-26T16:12:00.923Z,2.97
2022-08-26T16:14:31.050Z,3.20
2022-08-26T16:16:59.044Z,3.45
2022-08-26T16:19:27.582Z,3.10
2022-08-26T16:21:56.903Z,3.50
2022-08-26T16:24:30.358Z,4.00
2022-08-26T16:26:58.729Z,3.45
2022-08-26T16:29:27.484Z,3.53
2022-08-26T16:31:55.383Z,3.05
2022-08-26T16:34:24.899Z,2.97
2022-08-26T16:36:53.252Z,2.88
2022-08-26T16:39:22.874Z,3.03
2022-08-26T16:41:50.826Z,2.80
2022-08-26T16:44:19.100Z,2.70
2022-08-26T16:46:47.180Z,3.25
2022-08-26T16:49:15.504Z,2.97
2022-08-26T16:51:43.789Z,3.30
2022-08-26T16:54:11.666Z,3.60
2022-08-26T16:56:40.891Z,3.70
2022-08-26T16:59:11.466Z,3.47
2022-08-26T17:01:39.445Z,4.22
2022-08-26T17:04:07.726Z,4.05
2022-08-26T17:06:35.977Z,3.20
2022-08-26T17:09:04.182Z,3.60
2022-08-26T17:11:32.052Z,3.80
2022-08-26T17:14:01.464Z,3.70
2022-08-26T17:16:31.970Z,4.07
2022-08-26T17:19:00.752Z,4.03
2022-08-26T17:21:29.944Z,3.67
2022-08-26T17:23:57.982Z,3.70
2022-08-26T17:26:27.031Z,3.75
2022-08-26T17:28:55.684Z,3.15
2022-08-26T17:31:25.250Z,3.28
2022-08-26T17:33:55.373Z,3.15
2022-08-26T17:36:27.608Z,3.20
2022-08-26T17:38:57.946Z,3.00
2022-08-26T17:41:27.344Z,3.03
2022-08-26T17:43:55.589Z,3.25
2022-08-26T17:46:25.455Z,3.58
2022-08-26T17:48:53.484Z,3.30
2022-08-26T17:51:23.184Z,3.58
2022-08-26T17:53:52.506Z,3.30
2022-08-26T17:56:25.987Z,3.08
2022-08-26T17:58:56.968Z,2.97
2022-08-26T18:01:28.500Z,3.10
2022-08-26T18:04:00.274Z,3.05
2022-08-26T18:06:30.606Z,3.35
2022-08-26T18:09:00.246Z,2.80
2022-08-26T18:11:31.095Z,3.17
2022-08-26T18:13:59.845Z,3.05
2022-08-26T18:16:38.166Z,3.00
2022-08-26T18:19:06.706Z,3.10
2022-08-26T18:21:36.188Z,3.30
2022-08-26T18:24:05.104Z,3.63
2022-08-26T18:26:36.960Z,3.55
2022-08-26T18:29:08.118Z,3.00
2022-08-26T18:31:38.590Z,3.53
2022-08-26T18:34:06.933Z,3.60
2022-08-26T18:36:37.144Z,3.28
2022-08-26T18:39:07.887Z,3.63
2022-08-26T18:41:43.030Z,3.22
2022-08-26T18:44:13.975Z,3.30
2022-08-26T18:46:45.872Z,3.50
2022-08-26T18:49:16.542Z,3.40
2022-08-26T18:51:47.779Z,3.30
2022-08-26T18:54:15.939Z,2.97
2022-08-26T18:56:46.199Z,2.97
2022-08-26T18:59:14.469Z,3.40
2022-08-26T19:01:43.908Z,3.70
2022-08-26T19:04:15.528Z,3.70
2022-08-26T19:06:47.462Z,4.13
2022-08-26T19:09:18.010Z,2.67
2022-08-26T19:11:46.516Z,2.53
2022-08-26T19:14:18.641Z,2.75
2022-08-26T19:16:52.243Z,3.65
2022-08-26T19:19:24.037Z,3.40
2022-08-26T19:21:52.559Z,3.75
2022-08-26T19:24:21.536Z,3.45
2022-08-26T19:26:57.624Z,3.83
2022-08-26T19:29:31.429Z,3.28
2022-08-26T19:32:02.071Z,3.28
2022-08-26T19:34:30.643Z,3.22
2022-08-26T19:36:58.907Z,3.55
2022-08-26T19:39:28.504Z,3.10
2022-08-26T19:41:56.691Z,2.20
2022-08-26T19:44:43.458Z,3.00
2022-08-26T19:47:16.395Z,3.00
2022-08-26T19:49:44.730Z,3.17
2022-08-26T19:52:12.722Z,3.47
2022-08-26T19:54:42.267Z,3.35
2022-08-26T19:57:11.068Z,3.00
2022-08-26T19:59:40.182Z,3.70
2022-08-26T20:02:11.010Z,1.92
2022-08-26T20:04:41.800Z,2.95
2022-08-26T20:07:13.067Z,2.35
2022-08-26T20:09:48.013Z,2.03
2022-08-26T20:12:18.671Z,2.58
2022-08-26T20:14:48.182Z,2.00
2022-08-26T20:17:17.075Z,1.92
2022-08-26T20:20:05.046Z,2.47
2022-08-26T20:22:33.640Z,1.92
2022-08-26T20:25:01.559Z,1.40
2022-08-26T20:27:37.836Z,1.90
2022-08-26T20:30:10.069Z,1.45
2022-08-26T20:32:39.357Z,2.00
2022-08-26T20:35:13.462Z,1.92
2022-08-26T20:37:42.279Z,2.33
2022-08-26T20:40:14.393Z,1.65
2022-08-26T20:42:42.503Z,2.00
2022-08-26T20:45:11.778Z,2.10
2022-08-26T20:47:39.833Z,2.42
2022-08-26T20:50:10.075Z,2.47
2022-08-26T20:52:37.942Z,2.55
2022-08-26T20:55:07.114Z,2.83
2022-08-26T20:57:35.034Z,2.83
2022-08-26T21:00:04.914Z,2.15
2022-08-26T21:02:33.900Z,2.65
2022-08-26T21:05:01.883Z,2.78
2022-08-26T21:07:31.252Z,2.90
2022-08-26T21:09:59.192Z,2.83
2022-08-26T21:12:27.351Z,3.40
2022-08-26T21:14:55.388Z,3.28
2022-08-26T21:17:23.237Z,3.42
2022-08-26T21:19:51.500Z,3.75
2022-08-26T21:22:19.811Z,3.67
2022-08-26T21:24:49.372Z,3.70
2022-08-26T21:27:21.290Z,3.40
2022-08-26T21:29:54.794Z,4.50
2022-08-26T21:32:23.904Z,3.85
2022-08-26T21:34:55.698Z,3.72
2022-08-26T21:37:24.845Z,3.90
2022-08-26T21:39:57.071Z,4.32
2022-08-26T21:42:26.529Z,3.47
2022-08-26T21:44:54.594Z,4.07
2022-08-26T21:47:23.289Z,3.03
2022-08-26T21:49:51.582Z,4.57
2022-08-26T21:52:20.063Z,3.95
2022-08-26T21:54:49.374Z,4.63
2022-08-26T21:57:19.168Z,3.95
2022-08-26T21:59:48.027Z,4.75
2022-08-26T22:02:16.175Z,4.40
2022-08-26T22:04:48.591Z,4.57
2022-08-26T22:07:17.980Z,5.43
2022-08-26T22:09:46.758Z,4.93
2022-08-26T22:12:18.214Z,4.40
2022-08-26T22:14:48.477Z,4.57
2022-08-26T22:17:16.864Z,4.90
2022-08-26T22:19:46.273Z,4.72
2022-08-26T22:22:15.573Z,4.18
2022-08-26T22:24:43.650Z,4.18
2022-08-26T22:27:13.578Z,3.97
2022-08-26T22:29:41.725Z,3.80
2022-08-26T22:32:11.082Z,3.72
2022-08-26T22:34:41.835Z,3.95
2022-08-26T22:37:09.845Z,3.70
2022-08-26T22:39:38.006Z,3.63
2022-08-26T22:42:06.284Z,3.58
2022-08-26T22:44:36.533Z,3.20
2022-08-26T22:47:05.489Z,3.45
2022-08-26T22:49:34.737Z,3.30
2022-08-26T22:52:03.462Z,3.65
2022-08-26T22:54:31.835Z,3.28
2022-08-26T22:56:59.680Z,3.13
2022-08-26T22:59:28.500Z,2.63
2022-08-26T23:01:56.469Z,3.15
2022-08-26T23:04:24.560Z,2.97
2022-08-26T23:06:53.833Z,2.72
2022-08-26T23:09:22.282Z,2.70
2022-08-26T23:11:50.199Z,2.70
2022-08-26T23:14:19.146Z,2.65
2022-08-26T23:16:47.941Z,2.85
2022-08-26T23:19:20.384Z,2.55
2022-08-26T23:21:49.938Z,2.42
2022-08-26T23:24:20.877Z,2.60
2022-08-26T23:26:49.123Z,2.70
2022-08-26T23:29:17.218Z,2.67
2022-08-26T23:31:45.230Z,2.70
2022-08-26T23:34:32.812Z,2.15
2022-08-26T23:37:01.678Z,2.67
2022-08-26T23:39:33.276Z,2.30
2022-08-26T23:42:02.175Z,2.80
2022-08-26T23:44:32.019Z,2.30
2022-08-26T23:47:00.864Z,2.80
2022-08-26T23:49:29.302Z,2.10
2022-08-26T23:52:15.991Z,2.13
2022-08-26T23:54:47.766Z,2.33
2022-08-26T23:57:17.847Z,2.45
2022-08-26T23:59:48.518Z,2.42
